sensor_id;sensor_type;location;lat;lon;timestamp;temperature;humidity
15083;DHT22;7640;53.116;6.878;2023-04-06T00:00:30;4.40;99.90
15083;DHT22;7640;53.116;6.878;2023-04-06T00:02:59;4.40;99.90
15083;DHT22;7640;53.116;6.878;2023-04-06T00:05:29;4.30;99.90
15083;DHT22;7640;53.116;6.878;2023-04-06T00:07:59;4.30;99.90
15083;DHT22;7640;53.116;6.878;2023-04-06T00:10:31;4.30;99.90
15083;DHT22;7640;53.116;6.878;2023-04-06T00:13:09;4.30;99.90
15083;DHT22;7640;53.116;6.878;2023-04-06T00:15:48;4.30;99.90
15083;DHT22;7640;53.116;6.878;2023-04-06T00:18:17;4.20;99.90
15083;DHT22;7640;53.116;6.878;2023-04-06T00:20:53;4.20;99.90
15083;DHT22;7640;53.116;6.878;2023-04-06T00:23:41;4.20;99.90
15083;DHT22;7640;53.116;6.878;2023-04-06T00:26:10;4.20;99.90
15083;DHT22;7640;53.116;6.878;2023-04-06T00:28:42;4.10;99.90
15083;DHT22;7640;53.116;6.878;2023-04-06T00:31:11;4.10;99.90
15083;DHT22;7640;53.116;6.878;2023-04-06T00:33:41;4.10;99.90
15083;DHT22;7640;53.116;6.878;2023-04-06T00:36:10;4.00;99.90
15083;DHT22;7640;53.116;6.878;2023-04-06T00:38:42;4.00;99.90
15083;DHT22;7640;53.116;6.878;2023-04-06T00:41:15;4.00;99.90
15083;DHT22;7640;53.116;6.878;2023-04-06T00:43:48;4.00;99.90
15083;DHT22;7640;53.116;6.878;2023-04-06T00:46:47;3.90;99.90
15083;DHT22;7640;53.116;6.878;2023-04-06T00:49:33;3.90;99.90
15083;DHT22;7640;53.116;6.878;2023-04-06T00:52:13;3.90;99.90
15083;DHT22;7640;53.116;6.878;2023-04-06T00:54:46;3.90;99.90
15083;DHT22;7640;53.116;6.878;2023-04-06T00:57:33;3.80;99.90
15083;DHT22;7640;53.116;6.878;2023-04-06T01:00:30;3.80;99.90
15083;DHT22;7640;53.116;6.878;2023-04-06T01:03:43;3.80;99.90
15083;DHT22;7640;53.116;6.878;2023-04-06T01:06:44;3.70;99.90
15083;DHT22;7640;53.116;6.878;2023-04-06T01:09:21;3.70;99.90
15083;DHT22;7640;53.116;6.878;2023-04-06T01:12:05;3.60;99.90
15083;DHT22;7640;53.116;6.878;2023-04-06T01:14:58;3.60;99.90
15083;DHT22;7640;53.116;6.878;2023-04-06T01:17:33;3.60;99.90
15083;DHT22;7640;53.116;6.878;2023-04-06T01:20:08;3.60;99.90
15083;DHT22;7640;53.116;6.878;2023-04-06T01:23:46;3.60;99.90
15083;DHT22;7640;53.116;6.878;2023-04-06T01:26:21;3.50;99.90
15083;DHT22;7640;53.116;6.878;2023-04-06T01:28:51;3.50;99.90
15083;DHT22;7640;53.116;6.878;2023-04-06T01:31:28;3.40;99.90
15083;DHT22;7640;53.116;6.878;2023-04-06T01:33:58;3.40;99.90
15083;DHT22;7640;53.116;6.878;2023-04-06T01:36:27;3.40;99.90
15083;DHT22;7640;53.116;6.878;2023-04-06T01:38:58;3.40;99.90
15083;DHT22;7640;53.116;6.878;2023-04-06T01:41:28;3.40;99.90
15083;DHT22;7640;53.116;6.878;2023-04-06T01:44:01;3.40;99.90
15083;DHT22;7640;53.116;6.878;2023-04-06T01:46:31;3.40;99.90
15083;DHT22;7640;53.116;6.878;2023-04-06T01:49:01;3.30;99.90
15083;DHT22;7640;53.116;6.878;2023-04-06T01:51:32;3.30;99.90
15083;DHT22;7640;53.116;6.878;2023-04-06T01:54:06;3.30;99.90
15083;DHT22;7640;53.116;6.878;2023-04-06T01:56:43;3.30;99.90
15083;DHT22;7640;53.116;6.878;2023-04-06T01:59:13;3.20;99.90
15083;DHT22;7640;53.116;6.878;2023-04-06T02:01:50;3.20;99.90
15083;DHT22;7640;53.116;6.878;2023-04-06T02:04:21;3.20;99.90
15083;DHT22;7640;53.116;6.878;2023-04-06T02:06:55;3.20;99.90
15083;DHT22;7640;53.116;6.878;2023-04-06T02:09:26;3.10;99.90
15083;DHT22;7640;53.116;6.878;2023-04-06T02:11:57;3.10;99.90
15083;DHT22;7640;53.116;6.878;2023-04-06T02:14:28;3.10;99.90
15083;DHT22;7640;53.116;6.878;2023-04-06T02:16:58;3.10;99.90
15083;DHT22;7640;53.116;6.878;2023-04-06T02:19:28;3.10;99.90
15083;DHT22;7640;53.116;6.878;2023-04-06T02:22:00;3.00;99.90
15083;DHT22;7640;53.116;6.878;2023-04-06T02:24:32;3.10;99.90
15083;DHT22;7640;53.116;6.878;2023-04-06T02:27:05;3.00;99.90
15083;DHT22;7640;53.116;6.878;2023-04-06T02:29:43;3.00;99.90
15083;DHT22;7640;53.116;6.878;2023-04-06T02:32:14;3.00;99.90
15083;DHT22;7640;53.116;6.878;2023-04-06T02:34:47;2.90;99.90
15083;DHT22;7640;53.116;6.878;2023-04-06T02:37:17;3.00;99.90
15083;DHT22;7640;53.116;6.878;2023-04-06T02:39:51;2.90;99.90
15083;DHT22;7640;53.116;6.878;2023-04-06T02:42:22;2.90;99.90
15083;DHT22;7640;53.116;6.878;2023-04-06T02:44:55;2.90;99.90
15083;DHT22;7640;53.116;6.878;2023-04-06T02:47:26;2.90;99.90
15083;DHT22;7640;53.116;6.878;2023-04-06T02:49:56;2.90;99.90
15083;DHT22;7640;53.116;6.878;2023-04-06T02:52:32;2.80;99.90
15083;DHT22;7640;53.116;6.878;2023-04-06T02:55:06;2.80;99.90
15083;DHT22;7640;53.116;6.878;2023-04-06T02:57:40;2.80;99.90
15083;DHT22;7640;53.116;6.878;2023-04-06T03:00:11;2.70;99.90
15083;DHT22;7640;53.116;6.878;2023-04-06T03:02:42;2.70;99.90
15083;DHT22;7640;53.116;6.878;2023-04-06T03:05:13;2.70;99.90
15083;DHT22;7640;53.116;6.878;2023-04-06T03:07:43;2.70;99.90
15083;DHT22;7640;53.116;6.878;2023-04-06T03:10:16;2.70;99.90
15083;DHT22;7640;53.116;6.878;2023-04-06T03:12:48;2.70;99.90
15083;DHT22;7640;53.116;6.878;2023-04-06T03:15:19;2.60;99.90
15083;DHT22;7640;53.116;6.878;2023-04-06T03:17:51;2.60;99.90
15083;DHT22;7640;53.116;6.878;2023-04-06T03:20:22;2.60;99.90
15083;DHT22;7640;53.116;6.878;2023-04-06T03:22:53;2.60;99.90
15083;DHT22;7640;53.116;6.878;2023-04-06T03:25:28;2.60;99.90
15083;DHT22;7640;53.116;6.878;2023-04-06T03:27:57;2.50;99.90
15083;DHT22;7640;53.116;6.878;2023-04-06T03:30:26;2.50;99.90
15083;DHT22;7640;53.116;6.878;2023-04-06T03:32:56;2.50;99.90
15083;DHT22;7640;53.116;6.878;2023-04-06T03:35:27;2.50;99.90
15083;DHT22;7640;53.116;6.878;2023-04-06T03:37:56;2.50;99.90
15083;DHT22;7640;53.116;6.878;2023-04-06T03:40:28;2.50;99.90
15083;DHT22;7640;53.116;6.878;2023-04-06T03:42:59;2.50;99.90
15083;DHT22;7640;53.116;6.878;2023-04-06T03:45:29;2.50;99.90
15083;DHT22;7640;53.116;6.878;2023-04-06T03:48:00;2.40;99.90
15083;DHT22;7640;53.116;6.878;2023-04-06T03:50:30;2.40;99.90
15083;DHT22;7640;53.116;6.878;2023-04-06T03:52:59;2.40;99.90
15083;DHT22;7640;53.116;6.878;2023-04-06T03:55:32;2.40;99.90
15083;DHT22;7640;53.116;6.878;2023-04-06T03:58:02;2.40;99.90
15083;DHT22;7640;53.116;6.878;2023-04-06T04:00:33;2.30;99.90
15083;DHT22;7640;53.116;6.878;2023-04-06T04:03:07;2.30;99.90
15083;DHT22;7640;53.116;6.878;2023-04-06T04:05:41;2.30;99.90
15083;DHT22;7640;53.116;6.878;2023-04-06T04:08:12;2.30;99.90
15083;DHT22;7640;53.116;6.878;2023-04-06T04:10:43;2.30;99.90
15083;DHT22;7640;53.116;6.878;2023-04-06T04:13:13;2.20;99.90
15083;DHT22;7640;53.116;6.878;2023-04-06T04:15:43;2.20;99.90
15083;DHT22;7640;53.116;6.878;2023-04-06T04:18:12;2.20;99.90
15083;DHT22;7640;53.116;6.878;2023-04-06T04:20:41;2.20;99.90
15083;DHT22;7640;53.116;6.878;2023-04-06T04:23:10;2.20;99.90
15083;DHT22;7640;53.116;6.878;2023-04-06T04:25:40;2.10;99.90
15083;DHT22;7640;53.116;6.878;2023-04-06T04:28:12;2.10;99.90
15083;DHT22;7640;53.116;6.878;2023-04-06T04:30:42;2.10;99.90
15083;DHT22;7640;53.116;6.878;2023-04-06T04:33:12;2.10;99.90
15083;DHT22;7640;53.116;6.878;2023-04-06T04:35:43;2.10;99.90
15083;DHT22;7640;53.116;6.878;2023-04-06T04:38:13;2.10;99.90
15083;DHT22;7640;53.116;6.878;2023-04-06T04:40:47;2.00;99.90
15083;DHT22;7640;53.116;6.878;2023-04-06T04:43:17;2.00;99.90
15083;DHT22;7640;53.116;6.878;2023-04-06T04:45:49;2.00;99.90
15083;DHT22;7640;53.116;6.878;2023-04-06T04:48:23;2.00;99.90
15083;DHT22;7640;53.116;6.878;2023-04-06T04:50:56;1.90;99.90
15083;DHT22;7640;53.116;6.878;2023-04-06T04:53:52;1.90;99.90
15083;DHT22;7640;53.116;6.878;2023-04-06T04:56:48;1.80;99.90
15083;DHT22;7640;53.116;6.878;2023-04-06T04:59:21;1.80;99.90
15083;DHT22;7640;53.116;6.878;2023-04-06T05:01:57;1.80;99.90
15083;DHT22;7640;53.116;6.878;2023-04-06T05:04:33;1.80;99.90
15083;DHT22;7640;53.116;6.878;2023-04-06T05:07:06;1.80;99.90
15083;DHT22;7640;53.116;6.878;2023-04-06T05:09:36;1.80;99.90
15083;DHT22;7640;53.116;6.878;2023-04-06T05:12:08;1.80;99.90
15083;DHT22;7640;53.116;6.878;2023-04-06T05:14:38;1.80;99.90
15083;DHT22;7640;53.116;6.878;2023-04-06T05:17:07;1.80;99.90
15083;DHT22;7640;53.116;6.878;2023-04-06T05:19:38;1.80;99.90
15083;DHT22;7640;53.116;6.878;2023-04-06T05:22:08;1.90;99.90
15083;DHT22;7640;53.116;6.878;2023-04-06T05:24:38;1.90;99.90
15083;DHT22;7640;53.116;6.878;2023-04-06T05:27:11;1.90;99.90
15083;DHT22;7640;53.116;6.878;2023-04-06T05:29:41;2.00;99.90
15083;DHT22;7640;53.116;6.878;2023-04-06T05:32:10;1.90;99.90
15083;DHT22;7640;53.116;6.878;2023-04-06T05:34:40;2.00;99.90
15083;DHT22;7640;53.116;6.878;2023-04-06T05:37:11;2.00;99.90
15083;DHT22;7640;53.116;6.878;2023-04-06T05:39:42;2.00;99.90
15083;DHT22;7640;53.116;6.878;2023-04-06T05:42:13;2.10;99.90
15083;DHT22;7640;53.116;6.878;2023-04-06T05:44:43;2.10;99.90
15083;DHT22;7640;53.116;6.878;2023-04-06T05:47:12;2.10;99.90
15083;DHT22;7640;53.116;6.878;2023-04-06T05:49:43;2.20;99.90
15083;DHT22;7640;53.116;6.878;2023-04-06T05:52:14;2.20;99.90
15083;DHT22;7640;53.116;6.878;2023-04-06T05:54:44;2.30;99.90
15083;DHT22;7640;53.116;6.878;2023-04-06T05:57:15;2.30;99.90
15083;DHT22;7640;53.116;6.878;2023-04-06T05:59:50;2.40;99.90
15083;DHT22;7640;53.116;6.878;2023-04-06T06:02:31;2.40;99.90
15083;DHT22;7640;53.116;6.878;2023-04-06T06:05:04;2.50;99.90
15083;DHT22;7640;53.116;6.878;2023-04-06T06:07:33;2.60;99.90
15083;DHT22;7640;53.116;6.878;2023-04-06T06:10:03;2.70;99.90
15083;DHT22;7640;53.116;6.878;2023-04-06T06:12:40;2.80;99.90
15083;DHT22;7640;53.116;6.878;2023-04-06T06:15:17;2.80;99.90
15083;DHT22;7640;53.116;6.878;2023-04-06T06:17:56;2.90;99.90
15083;DHT22;7640;53.116;6.878;2023-04-06T06:20:28;3.00;99.90
15083;DHT22;7640;53.116;6.878;2023-04-06T06:22:59;3.10;99.90
15083;DHT22;7640;53.116;6.878;2023-04-06T06:25:42;3.20;99.90
15083;DHT22;7640;53.116;6.878;2023-04-06T06:28:14;3.30;99.90
15083;DHT22;7640;53.116;6.878;2023-04-06T06:30:46;3.40;99.90
15083;DHT22;7640;53.116;6.878;2023-04-06T06:33:20;3.50;99.90
15083;DHT22;7640;53.116;6.878;2023-04-06T06:35:57;3.60;99.90
15083;DHT22;7640;53.116;6.878;2023-04-06T06:38:28;3.70;99.90
15083;DHT22;7640;53.116;6.878;2023-04-06T06:40:58;3.80;99.90
15083;DHT22;7640;53.116;6.878;2023-04-06T06:43:32;3.90;99.90
15083;DHT22;7640;53.116;6.878;2023-04-06T06:46:06;4.00;99.90
15083;DHT22;7640;53.116;6.878;2023-04-06T06:48:37;4.10;99.90
15083;DHT22;7640;53.116;6.878;2023-04-06T06:51:07;4.20;99.90
15083;DHT22;7640;53.116;6.878;2023-04-06T06:53:39;4.30;99.90
15083;DHT22;7640;53.116;6.878;2023-04-06T06:56:08;4.40;99.90
15083;DHT22;7640;53.116;6.878;2023-04-06T06:58:40;4.50;99.90
15083;DHT22;7640;53.116;6.878;2023-04-06T07:01:10;4.60;99.90
15083;DHT22;7640;53.116;6.878;2023-04-06T07:03:43;4.70;99.90
15083;DHT22;7640;53.116;6.878;2023-04-06T07:06:13;4.80;99.90
15083;DHT22;7640;53.116;6.878;2023-04-06T07:08:51;4.90;99.90
15083;DHT22;7640;53.116;6.878;2023-04-06T07:11:28;5.00;99.90
15083;DHT22;7640;53.116;6.878;2023-04-06T07:14:08;5.10;99.90
15083;DHT22;7640;53.116;6.878;2023-04-06T07:16:39;5.20;99.90
15083;DHT22;7640;53.116;6.878;2023-04-06T07:19:09;5.30;99.90
15083;DHT22;7640;53.116;6.878;2023-04-06T07:21:41;5.40;99.90
15083;DHT22;7640;53.116;6.878;2023-04-06T07:24:10;5.50;99.90
15083;DHT22;7640;53.116;6.878;2023-04-06T07:26:41;5.60;99.90
15083;DHT22;7640;53.116;6.878;2023-04-06T07:29:14;5.70;99.90
15083;DHT22;7640;53.116;6.878;2023-04-06T07:31:58;5.80;99.90
15083;DHT22;7640;53.116;6.878;2023-04-06T07:34:33;5.90;99.90
15083;DHT22;7640;53.116;6.878;2023-04-06T07:37:03;6.00;99.90
15083;DHT22;7640;53.116;6.878;2023-04-06T07:39:34;6.20;99.90
15083;DHT22;7640;53.116;6.878;2023-04-06T07:42:03;6.30;99.90
15083;DHT22;7640;53.116;6.878;2023-04-06T07:44:35;6.40;99.90
15083;DHT22;7640;53.116;6.878;2023-04-06T07:47:05;6.60;99.90
15083;DHT22;7640;53.116;6.878;2023-04-06T07:49:37;6.70;99.90
15083;DHT22;7640;53.116;6.878;2023-04-06T07:52:07;6.80;99.90
15083;DHT22;7640;53.116;6.878;2023-04-06T07:54:36;7.00;99.90
15083;DHT22;7640;53.116;6.878;2023-04-06T07:57:05;7.10;99.90
15083;DHT22;7640;53.116;6.878;2023-04-06T07:59:36;7.20;99.90
15083;DHT22;7640;53.116;6.878;2023-04-06T08:02:13;7.30;99.90
15083;DHT22;7640;53.116;6.878;2023-04-06T08:04:48;7.40;99.90
15083;DHT22;7640;53.116;6.878;2023-04-06T08:07:22;7.60;99.90
15083;DHT22;7640;53.116;6.878;2023-04-06T08:09:56;7.70;99.90
15083;DHT22;7640;53.116;6.878;2023-04-06T08:12:28;7.80;99.90
15083;DHT22;7640;53.116;6.878;2023-04-06T08:15:00;7.90;99.90
15083;DHT22;7640;53.116;6.878;2023-04-06T08:17:32;8.00;99.90
15083;DHT22;7640;53.116;6.878;2023-04-06T08:20:04;8.10;99.90
15083;DHT22;7640;53.116;6.878;2023-04-06T08:22:36;8.30;99.90
15083;DHT22;7640;53.116;6.878;2023-04-06T08:25:07;8.50;99.90
15083;DHT22;7640;53.116;6.878;2023-04-06T08:27:37;8.60;99.90
15083;DHT22;7640;53.116;6.878;2023-04-06T08:30:15;8.70;99.90
15083;DHT22;7640;53.116;6.878;2023-04-06T08:33:06;8.90;99.90
15083;DHT22;7640;53.116;6.878;2023-04-06T08:35:36;9.10;99.90
15083;DHT22;7640;53.116;6.878;2023-04-06T08:38:06;9.30;99.90
15083;DHT22;7640;53.116;6.878;2023-04-06T08:40:38;9.40;99.90
15083;DHT22;7640;53.116;6.878;2023-04-06T08:43:14;9.60;99.90
15083;DHT22;7640;53.116;6.878;2023-04-06T08:45:47;9.70;99.90
15083;DHT22;7640;53.116;6.878;2023-04-06T08:48:23;9.90;99.90
15083;DHT22;7640;53.116;6.878;2023-04-06T08:50:59;10.00;99.90
15083;DHT22;7640;53.116;6.878;2023-04-06T08:53:29;10.20;99.90
15083;DHT22;7640;53.116;6.878;2023-04-06T08:55:59;10.30;99.90
15083;DHT22;7640;53.116;6.878;2023-04-06T08:58:34;10.50;99.90
15083;DHT22;7640;53.116;6.878;2023-04-06T09:01:08;10.60;99.90
15083;DHT22;7640;53.116;6.878;2023-04-06T09:03:43;10.80;99.90
15083;DHT22;7640;53.116;6.878;2023-04-06T09:06:20;10.90;99.90
15083;DHT22;7640;53.116;6.878;2023-04-06T09:08:52;11.00;99.90
15083;DHT22;7640;53.116;6.878;2023-04-06T09:11:23;11.20;99.90
15083;DHT22;7640;53.116;6.878;2023-04-06T09:13:55;11.40;99.90
15083;DHT22;7640;53.116;6.878;2023-04-06T09:16:27;11.50;99.90
15083;DHT22;7640;53.116;6.878;2023-04-06T09:19:08;11.70;99.90
15083;DHT22;7640;53.116;6.878;2023-04-06T09:21:40;11.80;99.90
15083;DHT22;7640;53.116;6.878;2023-04-06T09:24:10;11.90;99.90
15083;DHT22;7640;53.116;6.878;2023-04-06T09:26:46;12.10;99.90
15083;DHT22;7640;53.116;6.878;2023-04-06T09:29:25;12.20;99.90
15083;DHT22;7640;53.116;6.878;2023-04-06T09:32:04;12.30;99.90
15083;DHT22;7640;53.116;6.878;2023-04-06T09:34:38;12.40;99.90
15083;DHT22;7640;53.116;6.878;2023-04-06T09:37:15;12.50;99.90
15083;DHT22;7640;53.116;6.878;2023-04-06T09:39:46;12.70;99.90
15083;DHT22;7640;53.116;6.878;2023-04-06T09:42:25;12.80;99.90
15083;DHT22;7640;53.116;6.878;2023-04-06T09:44:56;12.90;99.90
15083;DHT22;7640;53.116;6.878;2023-04-06T09:47:28;13.10;99.90
15083;DHT22;7640;53.116;6.878;2023-04-06T09:50:00;13.20;99.90
15083;DHT22;7640;53.116;6.878;2023-04-06T09:52:37;13.30;99.90
15083;DHT22;7640;53.116;6.878;2023-04-06T09:55:10;13.40;99.90
15083;DHT22;7640;53.116;6.878;2023-04-06T09:57:47;13.50;99.90
15083;DHT22;7640;53.116;6.878;2023-04-06T10:00:24;13.60;99.90
15083;DHT22;7640;53.116;6.878;2023-04-06T10:03:14;13.90;99.90
15083;DHT22;7640;53.116;6.878;2023-04-06T10:05:59;14.20;99.90
15083;DHT22;7640;53.116;6.878;2023-04-06T10:08:33;14.40;99.90
15083;DHT22;7640;53.116;6.878;2023-04-06T10:11:04;14.60;99.90
15083;DHT22;7640;53.116;6.878;2023-04-06T10:13:33;14.90;99.90
15083;DHT22;7640;53.116;6.878;2023-04-06T10:16:04;15.00;99.90
15083;DHT22;7640;53.116;6.878;2023-04-06T10:18:37;15.20;99.50
15083;DHT22;7640;53.116;6.878;2023-04-06T10:21:11;15.30;99.50
15083;DHT22;7640;53.116;6.878;2023-04-06T10:23:45;15.40;98.60
15083;DHT22;7640;53.116;6.878;2023-04-06T10:26:21;15.50;97.80
15083;DHT22;7640;53.116;6.878;2023-04-06T10:29:01;15.50;97.30
15083;DHT22;7640;53.116;6.878;2023-04-06T10:31:32;15.50;97.20
15083;DHT22;7640;53.116;6.878;2023-04-06T10:34:04;15.50;96.80
15083;DHT22;7640;53.116;6.878;2023-04-06T10:36:35;15.50;96.60
15083;DHT22;7640;53.116;6.878;2023-04-06T10:39:06;15.50;96.60
15083;DHT22;7640;53.116;6.878;2023-04-06T10:41:40;15.50;96.60
15083;DHT22;7640;53.116;6.878;2023-04-06T10:44:19;15.50;96.40
15083;DHT22;7640;53.116;6.878;2023-04-06T10:46:57;15.50;96.50
15083;DHT22;7640;53.116;6.878;2023-04-06T10:49:37;15.50;96.30
15083;DHT22;7640;53.116;6.878;2023-04-06T10:52:10;15.60;96.10
15083;DHT22;7640;53.116;6.878;2023-04-06T10:54:42;15.60;95.90
15083;DHT22;7640;53.116;6.878;2023-04-06T10:57:16;15.60;96.20
15083;DHT22;7640;53.116;6.878;2023-04-06T10:59:45;15.70;96.20
15083;DHT22;7640;53.116;6.878;2023-04-06T11:02:21;15.80;95.80
15083;DHT22;7640;53.116;6.878;2023-04-06T11:04:58;15.90;95.60
15083;DHT22;7640;53.116;6.878;2023-04-06T11:07:28;16.10;95.40
15083;DHT22;7640;53.116;6.878;2023-04-06T11:09:59;16.20;95.20
15083;DHT22;7640;53.116;6.878;2023-04-06T11:12:32;16.30;95.00
15083;DHT22;7640;53.116;6.878;2023-04-06T11:15:03;16.40;94.70
15083;DHT22;7640;53.116;6.878;2023-04-06T11:17:34;16.50;94.40
15083;DHT22;7640;53.116;6.878;2023-04-06T11:20:11;16.50;94.40
15083;DHT22;7640;53.116;6.878;2023-04-06T11:22:51;16.60;94.10
15083;DHT22;7640;53.116;6.878;2023-04-06T11:25:21;16.60;94.00
15083;DHT22;7640;53.116;6.878;2023-04-06T11:27:52;16.70;93.60
15083;DHT22;7640;53.116;6.878;2023-04-06T11:30:22;16.70;93.00
15083;DHT22;7640;53.116;6.878;2023-04-06T11:33:00;16.70;93.20
15083;DHT22;7640;53.116;6.878;2023-04-06T11:35:35;16.80;92.70
15083;DHT22;7640;53.116;6.878;2023-04-06T11:38:12;16.80;92.50
15083;DHT22;7640;53.116;6.878;2023-04-06T11:40:42;16.80;92.70
15083;DHT22;7640;53.116;6.878;2023-04-06T11:43:12;16.90;93.00
15083;DHT22;7640;53.116;6.878;2023-04-06T11:45:42;17.00;92.90
15083;DHT22;7640;53.116;6.878;2023-04-06T11:48:19;16.90;92.80
15083;DHT22;7640;53.116;6.878;2023-04-06T11:51:02;16.90;92.70
15083;DHT22;7640;53.116;6.878;2023-04-06T11:53:43;17.00;92.60
15083;DHT22;7640;53.116;6.878;2023-04-06T11:56:25;17.20;92.60
15083;DHT22;7640;53.116;6.878;2023-04-06T11:58:57;17.30;92.10
15083;DHT22;7640;53.116;6.878;2023-04-06T12:01:28;17.40;92.00
15083;DHT22;7640;53.116;6.878;2023-04-06T12:04:05;17.50;91.90
15083;DHT22;7640;53.116;6.878;2023-04-06T12:06:38;17.60;92.20
15083;DHT22;7640;53.116;6.878;2023-04-06T12:09:08;17.70;91.60
15083;DHT22;7640;53.116;6.878;2023-04-06T12:11:37;17.70;91.20
15083;DHT22;7640;53.116;6.878;2023-04-06T12:14:09;17.60;91.00
15083;DHT22;7640;53.116;6.878;2023-04-06T12:16:39;17.70;91.10
15083;DHT22;7640;53.116;6.878;2023-04-06T12:19:12;17.80;91.00
15083;DHT22;7640;53.116;6.878;2023-04-06T12:21:48;17.80;90.60
15083;DHT22;7640;53.116;6.878;2023-04-06T12:24:20;17.90;89.80
15083;DHT22;7640;53.116;6.878;2023-04-06T12:26:54;18.00;90.50
15083;DHT22;7640;53.116;6.878;2023-04-06T12:29:41;18.30;90.20
15083;DHT22;7640;53.116;6.878;2023-04-06T12:32:12;18.60;90.20
15083;DHT22;7640;53.116;6.878;2023-04-06T12:34:45;18.80;89.50
15083;DHT22;7640;53.116;6.878;2023-04-06T12:37:22;18.70;89.20
15083;DHT22;7640;53.116;6.878;2023-04-06T12:39:54;18.80;89.10
15083;DHT22;7640;53.116;6.878;2023-04-06T12:42:26;18.70;87.80
15083;DHT22;7640;53.116;6.878;2023-04-06T12:44:56;18.70;88.40
15083;DHT22;7640;53.116;6.878;2023-04-06T12:47:30;18.70;88.50
15083;DHT22;7640;53.116;6.878;2023-04-06T12:50:12;18.60;89.40
15083;DHT22;7640;53.116;6.878;2023-04-06T12:52:43;18.50;89.40
15083;DHT22;7640;53.116;6.878;2023-04-06T12:55:12;18.40;89.40
15083;DHT22;7640;53.116;6.878;2023-04-06T12:57:42;18.30;89.80
15083;DHT22;7640;53.116;6.878;2023-04-06T13:00:15;18.30;89.50
15083;DHT22;7640;53.116;6.878;2023-04-06T13:02:49;18.20;89.30
15083;DHT22;7640;53.116;6.878;2023-04-06T13:05:38;18.30;89.70
15083;DHT22;7640;53.116;6.878;2023-04-06T13:08:17;18.20;89.20
15083;DHT22;7640;53.116;6.878;2023-04-06T13:10:50;18.20;89.90
15083;DHT22;7640;53.116;6.878;2023-04-06T13:13:23;18.30;90.10
15083;DHT22;7640;53.116;6.878;2023-04-06T13:15:59;18.30;88.90
15083;DHT22;7640;53.116;6.878;2023-04-06T13:18:33;18.30;88.70
15083;DHT22;7640;53.116;6.878;2023-04-06T13:21:06;18.30;88.60
15083;DHT22;7640;53.116;6.878;2023-04-06T13:23:40;18.20;88.00
15083;DHT22;7640;53.116;6.878;2023-04-06T13:26:09;18.00;87.80
15083;DHT22;7640;53.116;6.878;2023-04-06T13:28:40;17.90;88.40
15083;DHT22;7640;53.116;6.878;2023-04-06T13:31:10;17.80;88.80
15083;DHT22;7640;53.116;6.878;2023-04-06T13:33:40;17.80;89.10
15083;DHT22;7640;53.116;6.878;2023-04-06T13:36:09;17.60;89.10
15083;DHT22;7640;53.116;6.878;2023-04-06T13:38:43;17.50;89.10
15083;DHT22;7640;53.116;6.878;2023-04-06T13:41:18;17.30;89.90
15083;DHT22;7640;53.116;6.878;2023-04-06T13:43:52;17.30;90.00
15083;DHT22;7640;53.116;6.878;2023-04-06T13:46:22;17.50;90.40
15083;DHT22;7640;53.116;6.878;2023-04-06T13:48:53;17.60;90.20
15083;DHT22;7640;53.116;6.878;2023-04-06T13:51:23;17.70;89.80
15083;DHT22;7640;53.116;6.878;2023-04-06T13:53:56;17.70;88.90
15083;DHT22;7640;53.116;6.878;2023-04-06T13:56:27;17.70;88.40
15083;DHT22;7640;53.116;6.878;2023-04-06T13:58:56;17.60;88.40
15083;DHT22;7640;53.116;6.878;2023-04-06T14:01:27;17.50;87.20
15083;DHT22;7640;53.116;6.878;2023-04-06T14:03:57;17.40;87.50
15083;DHT22;7640;53.116;6.878;2023-04-06T14:06:26;17.40;87.90
15083;DHT22;7640;53.116;6.878;2023-04-06T14:09:00;17.30;88.40
15083;DHT22;7640;53.116;6.878;2023-04-06T14:11:35;17.30;88.70
15083;DHT22;7640;53.116;6.878;2023-04-06T14:14:06;17.30;89.00
15083;DHT22;7640;53.116;6.878;2023-04-06T14:16:40;17.20;89.20
15083;DHT22;7640;53.116;6.878;2023-04-06T14:19:13;17.20;89.40
15083;DHT22;7640;53.116;6.878;2023-04-06T14:21:45;17.10;89.20
15083;DHT22;7640;53.116;6.878;2023-04-06T14:24:17;17.00;89.20
15083;DHT22;7640;53.116;6.878;2023-04-06T14:26:47;16.90;89.30
15083;DHT22;7640;53.116;6.878;2023-04-06T14:29:19;16.80;89.70
15083;DHT22;7640;53.116;6.878;2023-04-06T14:31:50;16.80;90.10
15083;DHT22;7640;53.116;6.878;2023-04-06T14:34:20;16.70;90.10
15083;DHT22;7640;53.116;6.878;2023-04-06T14:36:51;16.70;90.10
15083;DHT22;7640;53.116;6.878;2023-04-06T14:39:26;16.50;90.20
15083;DHT22;7640;53.116;6.878;2023-04-06T14:41:58;16.40;90.20
15083;DHT22;7640;53.116;6.878;2023-04-06T14:44:27;16.30;90.40
15083;DHT22;7640;53.116;6.878;2023-04-06T14:47:02;16.20;90.40
15083;DHT22;7640;53.116;6.878;2023-04-06T14:49:32;16.20;90.60
15083;DHT22;7640;53.116;6.878;2023-04-06T14:52:02;16.20;90.60
15083;DHT22;7640;53.116;6.878;2023-04-06T14:54:34;16.10;90.70
15083;DHT22;7640;53.116;6.878;2023-04-06T14:57:04;16.20;91.00
15083;DHT22;7640;53.116;6.878;2023-04-06T14:59:34;16.10;91.10
15083;DHT22;7640;53.116;6.878;2023-04-06T15:02:06;16.20;91.30
15083;DHT22;7640;53.116;6.878;2023-04-06T15:04:36;16.10;91.50
15083;DHT22;7640;53.116;6.878;2023-04-06T15:07:09;16.00;91.70
15083;DHT22;7640;53.116;6.878;2023-04-06T15:10:00;15.90;91.90
15083;DHT22;7640;53.116;6.878;2023-04-06T15:12:32;15.80;92.40
15083;DHT22;7640;53.116;6.878;2023-04-06T15:15:06;15.60;92.60
15083;DHT22;7640;53.116;6.878;2023-04-06T15:17:36;15.40;93.00
15083;DHT22;7640;53.116;6.878;2023-04-06T15:20:09;15.20;93.40
15083;DHT22;7640;53.116;6.878;2023-04-06T15:22:46;15.10;94.00
15083;DHT22;7640;53.116;6.878;2023-04-06T15:25:18;14.90;94.10
15083;DHT22;7640;53.116;6.878;2023-04-06T15:27:51;14.80;94.50
15083;DHT22;7640;53.116;6.878;2023-04-06T15:30:23;14.70;94.60
15083;DHT22;7640;53.116;6.878;2023-04-06T15:33:09;14.70;94.90
15083;DHT22;7640;53.116;6.878;2023-04-06T15:35:39;14.50;95.20
15083;DHT22;7640;53.116;6.878;2023-04-06T15:38:10;14.50;95.60
15083;DHT22;7640;53.116;6.878;2023-04-06T15:40:46;14.30;95.80
15083;DHT22;7640;53.116;6.878;2023-04-06T15:43:17;14.20;96.20
15083;DHT22;7640;53.116;6.878;2023-04-06T15:45:48;14.00;96.80
15083;DHT22;7640;53.116;6.878;2023-04-06T15:48:18;13.90;97.40
15083;DHT22;7640;53.116;6.878;2023-04-06T15:50:57;13.80;97.70
15083;DHT22;7640;53.116;6.878;2023-04-06T15:53:27;13.80;98.00
15083;DHT22;7640;53.116;6.878;2023-04-06T15:56:00;13.70;98.30
15083;DHT22;7640;53.116;6.878;2023-04-06T15:58:39;13.60;98.40
15083;DHT22;7640;53.116;6.878;2023-04-06T16:01:21;13.60;98.70
15083;DHT22;7640;53.116;6.878;2023-04-06T16:03:57;13.60;99.10
15083;DHT22;7640;53.116;6.878;2023-04-06T16:06:29;13.50;99.30
15083;DHT22;7640;53.116;6.878;2023-04-06T16:09:05;13.40;99.70
15083;DHT22;7640;53.116;6.878;2023-04-06T16:11:39;13.40;99.90
15083;DHT22;7640;53.116;6.878;2023-04-06T16:14:15;13.30;99.90
15083;DHT22;7640;53.116;6.878;2023-04-06T16:16:48;13.20;99.90
15083;DHT22;7640;53.116;6.878;2023-04-06T16:19:21;13.20;99.90
15083;DHT22;7640;53.116;6.878;2023-04-06T16:21:52;13.10;99.90
15083;DHT22;7640;53.116;6.878;2023-04-06T16:24:24;13.10;99.90
15083;DHT22;7640;53.116;6.878;2023-04-06T16:27:00;13.10;99.90
15083;DHT22;7640;53.116;6.878;2023-04-06T16:29:37;13.10;99.90
15083;DHT22;7640;53.116;6.878;2023-04-06T16:32:21;13.10;99.90
15083;DHT22;7640;53.116;6.878;2023-04-06T16:34:52;13.10;99.90